Time;durP1;ratioP1;P1;durP2;ratioP2;P2;SDS_P1;SDS_P2;PMS_P1;PMS_P2;Temp;Humidity;BMP_temperature;BMP_pressure;BME280_temperature;BME280_humidity;BME280_pressure;Samples;Min_cycle;Max_cycle;Signal;HPM_P1;HPM_P2
2021/03/15 00:00:59;;;;;;;;;3.50;3.00;;;;;12.51;43.73;97683.06;4850770;28;104301;-79
2021/03/15 00:03:26;;;;;;;;;3.25;3.00;;;;;12.49;43.57;97677.88;4852897;28;102741;-79
2021/03/15 00:05:57;;;;;;;;;5.00;2.75;;;;;12.49;43.56;97677.88;4847304;28;103943;-79
2021/03/15 00:08:23;;;;;;;;;6.50;3.50;;;;;12.49;43.48;97683.28;4845897;28;102935;-79
2021/03/15 00:10:50;;;;;;;;;3.25;2.50;;;;;12.50;43.73;97690.38;4832921;28;104078;-79
2021/03/15 00:13:18;;;;;;;;;5.25;4.50;;;;;12.48;44.01;97678.94;4844847;28;103021;-79
2021/03/15 00:15:45;;;;;;;;;4.25;4.25;;;;;12.48;43.48;97684.34;4850603;28;103617;-79
2021/03/15 00:18:12;;;;;;;;;4.50;3.00;;;;;12.49;43.26;97677.88;4853090;28;102857;-79
2021/03/15 00:20:39;;;;;;;;;3.00;3.00;;;;;12.47;43.45;97669.13;4851040;28;103988;-79
2021/03/15 00:23:05;;;;;;;;;3.00;3.00;;;;;12.47;43.79;97669.13;4852062;28;104879;-79
2021/03/15 00:25:32;;;;;;;;;5.50;4.00;;;;;12.48;44.01;97662.66;4849317;28;103397;-78
2021/03/15 00:27:59;;;;;;;;;5.00;3.50;;;;;12.46;43.38;97667.50;4865032;28;103018;-79
2021/03/15 00:30:25;;;;;;;;;4.00;3.50;;;;;12.46;43.16;97666.69;4845553;28;105212;-79
2021/03/15 00:32:53;;;;;;;;;5.75;4.50;;;;;12.46;44.06;97677.53;4854802;28;105154;-79
2021/03/15 00:35:20;;;;;;;;;4.00;3.00;;;;;12.46;44.10;97672.94;4850347;28;102973;-79
2021/03/15 00:37:47;;;;;;;;;3.00;3.00;;;;;12.45;44.31;97673.97;4846071;28;103005;-79
2021/03/15 00:40:15;;;;;;;;;3.00;3.00;;;;;12.45;43.67;97676.69;4848014;28;103971;-79
2021/03/15 00:42:42;;;;;;;;;4.00;4.00;;;;;12.45;43.47;97673.97;4842971;28;105584;-79
2021/03/15 00:45:09;;;;;;;;;5.50;5.00;;;;;12.45;43.90;97671.28;4849238;28;102866;-79
2021/03/15 00:47:36;;;;;;;;;3.00;2.50;;;;;12.44;43.72;97669.63;4856258;28;102957;-79
2021/03/15 00:50:06;;;;;;;;;3.50;3.50;;;;;12.44;43.99;97664.19;4851914;28;104380;-78
2021/03/15 00:52:33;;;;;;;;;2.00;2.00;;;;;12.43;43.76;97667.97;4852613;28;103293;-78
2021/03/15 00:54:59;;;;;;;;;4.25;4.25;;;;;12.44;43.73;97668.78;4859818;28;103245;-79
2021/03/15 00:57:26;;;;;;;;;4.75;3.75;;;;;12.42;43.67;97666.34;4846198;28;103047;-79
2021/03/15 00:59:53;;;;;;;;;4.25;3.00;;;;;12.41;43.29;97663.84;4840455;28;103969;-79
2021/03/15 01:02:20;;;;;;;;;4.50;4.00;;;;;12.42;44.16;97660.91;4846698;28;102960;-79
2021/03/15 01:04:47;;;;;;;;;4.00;3.50;;;;;12.43;44.20;97667.13;4826937;28;102865;-79
2021/03/15 01:07:14;;;;;;;;;9.25;6.00;;;;;12.42;44.24;97655.50;4841626;28;104384;-79
2021/03/15 01:09:41;;;;;;;;;3.75;3.75;;;;;12.42;43.66;97654.66;4839317;28;103945;-79
2021/03/15 01:12:08;;;;;;;;;4.50;4.00;;;;;12.39;43.65;97655.94;4842930;28;102922;-79
2021/03/15 01:14:35;;;;;;;;;4.25;4.25;;;;;12.40;43.94;97652.19;4845655;28;103571;-79
2021/03/15 01:17:02;;;;;;;;;6.25;4.00;;;;;12.41;43.80;97648.41;4852645;28;103706;-79
2021/03/15 01:19:30;;;;;;;;;4.00;4.00;;;;;12.39;44.04;97642.38;4843685;28;105460;-79
2021/03/15 01:21:57;;;;;;;;;6.25;5.00;;;;;12.41;44.04;97648.41;4854982;28;102858;-79
2021/03/15 01:24:24;;;;;;;;;5.25;5.00;;;;;12.39;43.51;97636.97;4843270;28;103042;-79
2021/03/15 01:26:51;;;;;;;;;6.75;5.25;;;;;12.40;44.15;97646.75;4846182;28;102877;-79
2021/03/15 01:29:18;;;;;;;;;5.25;4.75;;;;;12.40;43.52;97629.66;4843419;28;104574;-79
2021/03/15 01:31:45;;;;;;;;;4.00;4.00;;;;;12.38;43.85;97629.09;4844388;28;105666;-79
2021/03/15 01:34:12;;;;;;;;;5.50;4.25;;;;;12.38;43.30;97632.59;4842441;28;103106;-79
2021/03/15 01:36:39;;;;;;;;;7.75;5.75;;;;;12.38;44.07;97627.16;4852267;28;103092;-79
2021/03/15 01:39:06;;;;;;;;;3.75;3.75;;;;;12.37;43.85;97630.97;4852762;28;104109;-79
2021/03/15 01:41:32;;;;;;;;;6.00;4.50;;;;;12.37;43.39;97625.53;4850563;28;104450;-79
2021/03/15 01:43:59;;;;;;;;;3.25;3.25;;;;;12.37;43.37;97622.00;4856708;28;104360;-79
2021/03/15 01:46:26;;;;;;;;;5.00;4.00;;;;;12.37;43.63;97625.53;4849457;28;103645;-79
2021/03/15 01:48:53;;;;;;;;;5.00;4.00;;;;;12.37;43.84;97622.00;4853673;28;104756;-79
2021/03/15 01:51:19;;;;;;;;;4.00;3.75;;;;;12.36;43.66;97621.19;4852830;28;103079;-79
2021/03/15 01:53:46;;;;;;;;;5.25;4.00;;;;;12.35;44.11;97622.22;4847790;28;102676;-79
2021/03/15 01:56:13;;;;;;;;;5.25;3.75;;;;;12.34;43.57;97620.56;4855310;28;102991;-79
2021/03/15 01:58:39;;;;;;;;;5.25;5.00;;;;;12.35;43.60;97615.97;4847218;28;104352;-79
2021/03/15 02:01:07;;;;;;;;;4.00;4.00;;;;;12.35;43.73;97616.81;4844246;28;102866;-79
2021/03/15 02:03:33;;;;;;;;;5.00;4.00;;;;;12.34;43.97;97607.03;4852417;28;104894;-79
2021/03/15 02:06:00;;;;;;;;;5.50;4.00;;;;;12.33;43.67;97608.09;4854261;28;104522;-79
2021/03/15 02:08:27;;;;;;;;;4.75;3.00;;;;;12.34;43.86;97615.16;4848069;28;104219;-79
2021/03/15 02:10:54;;;;;;;;;6.00;3.50;;;;;12.34;43.96;97617.88;4832846;28;102868;-79
2021/03/15 02:13:56;;;;;;;;;4.50;3.75;;;;;12.33;44.03;97616.25;4839375;28;104936;-79
2021/03/15 02:17:09;;;;;;;;;4.00;4.00;;;;;12.33;43.98;97613.53;4784872;28;103198;-79
2021/03/15 02:20:21;;;;;;;;;5.25;5.00;;;;;12.33;43.94;97608.09;4750029;28;109454;-78
2021/03/15 02:22:53;;;;;;;;;5.00;4.50;;;;;12.32;43.76;97603.75;4788126;28;102955;-79
2021/03/15 02:25:45;;;;;;;;;6.25;5.00;;;;;12.32;43.61;97609.16;4846880;28;102689;-77
2021/03/15 02:28:21;;;;;;;;;5.25;4.00;;;;;12.32;43.71;97617.28;4772894;28;103826;-77
2021/03/15 02:31:25;;;;;;;;;6.25;5.75;;;;;12.31;44.08;97615.63;4840977;28;104034;-77
2021/03/15 02:33:53;;;;;;;;;3.75;3.75;;;;;12.28;43.80;97610.69;4760458;28;103041;-77
2021/03/15 02:36:20;;;;;;;;;5.50;4.50;;;;;12.28;43.65;97616.13;4844747;28;102822;-77
2021/03/15 02:38:47;;;;;;;;;6.25;6.00;;;;;12.29;43.46;97620.44;4843696;28;105364;-77
2021/03/15 02:41:16;;;;;;;;;5.50;5.50;;;;;12.30;43.81;97618.56;4841398;28;104447;-76
2021/03/15 02:43:54;;;;;;;;;5.00;5.00;;;;;12.30;43.75;97626.69;4850170;28;102748;-77
2021/03/15 02:46:22;;;;;;;;;4.25;4.00;;;;;12.29;43.63;97623.16;4842612;28;103723;-77
2021/03/15 02:48:50;;;;;;;;;4.50;3.75;;;;;12.28;43.53;97626.97;4850171;28;103026;-77
2021/03/15 02:51:18;;;;;;;;;5.75;4.50;;;;;12.27;44.14;97625.31;4816807;28;104061;-77
2021/03/15 02:53:45;;;;;;;;;4.75;4.00;;;;;12.27;43.53;97633.44;4837520;28;102753;-77
2021/03/15 02:56:16;;;;;;;;;6.00;5.00;;;;;12.28;43.78;97632.38;4829244;28;102958;-76
2021/03/15 02:58:43;;;;;;;;;7.75;5.00;;;;;12.28;43.60;97626.13;4835962;28;103047;-77
2021/03/15 03:01:11;;;;;;;;;3.50;3.50;;;;;12.26;43.51;97634.50;4841037;28;103633;-77
2021/03/15 03:03:37;;;;;;;;;5.00;4.00;;;;;12.26;43.86;97629.06;4855679;28;102700;-77
2021/03/15 03:06:05;;;;;;;;;5.25;3.25;;;;;12.26;43.77;97629.06;4830599;28;103608;-77
2021/03/15 03:08:32;;;;;;;;;5.00;5.00;;;;;12.25;43.49;97635.53;4854695;28;103272;-77
2021/03/15 03:10:59;;;;;;;;;5.50;5.00;;;;;12.25;43.54;97632.84;4844050;28;104289;-77
2021/03/15 03:13:26;;;;;;;;;6.00;5.00;;;;;12.22;43.19;97630.59;4847945;28;103240;-77
2021/03/15 03:15:52;;;;;;;;;4.75;4.00;;;;;12.22;43.69;97630.59;4836838;28;104500;-77
2021/03/15 03:18:22;;;;;;;;;6.00;4.25;;;;;12.25;43.41;97635.53;4838747;28;103076;-77
2021/03/15 03:20:54;;;;;;;;;5.25;5.00;;;;;12.25;43.80;97642.84;4848351;28;104293;-77
2021/03/15 03:23:22;;;;;;;;;5.00;5.00;;;;;12.24;43.49;97641.22;4835159;28;104772;-77
2021/03/15 03:25:49;;;;;;;;;5.50;5.00;;;;;12.25;43.75;97643.66;4836133;28;102999;-77
2021/03/15 03:28:16;;;;;;;;;5.25;4.75;;;;;12.23;43.69;97648.53;4834894;28;102837;-77
2021/03/15 03:30:42;;;;;;;;;5.00;5.00;;;;;12.24;43.42;97641.22;4830025;28;110640;-77
2021/03/15 03:33:09;;;;;;;;;6.50;5.00;;;;;12.24;43.40;97646.63;4838722;28;103109;-77
2021/03/15 03:35:36;;;;;;;;;6.75;4.75;;;;;12.23;43.39;97645.81;4843487;28;104021;-79
2021/03/15 03:38:03;;;;;;;;;4.50;3.25;;;;;12.23;43.64;97651.22;4846588;28;103217;-79
2021/03/15 03:40:30;;;;;;;;;5.25;4.75;;;;;12.21;43.62;97650.63;4843696;28;104530;-79
2021/03/15 03:42:57;;;;;;;;;5.00;4.00;;;;;12.21;43.62;97653.34;4853245;28;102779;-79
2021/03/15 03:45:23;;;;;;;;;7.25;5.00;;;;;12.22;43.78;97656.88;4855821;28;105919;-79
2021/03/15 03:47:50;;;;;;;;;7.75;5.75;;;;;12.21;43.85;97653.34;4853989;28;102854;-79
2021/03/15 03:50:22;;;;;;;;;7.75;5.75;;;;;12.21;43.73;97653.34;4847084;28;104208;-79
2021/03/15 03:53:04;;;;;;;;;5.00;4.00;;;;;12.22;43.32;97654.16;4853533;28;103110;-79
2021/03/15 03:56:01;;;;;;;;;5.50;5.50;;;;;12.19;43.74;97660.88;4854133;28;102895;-79
2021/03/15 03:58:36;;;;;;;;;4.25;4.00;;;;;12.20;43.36;97657.13;4785582;28;103065;-79
2021/03/15 04:01:03;;;;;;;;;6.50;5.25;;;;;12.19;44.09;97654.63;4857230;28;108923;-79
2021/03/15 04:03:30;;;;;;;;;5.00;5.00;;;;;12.20;43.32;97650.88;4858683;28;103482;-79
2021/03/15 04:05:59;;;;;;;;;5.25;5.00;;;;;12.17;43.72;97649.44;4847277;28;102960;-79
2021/03/15 04:08:36;;;;;;;;;5.00;5.00;;;;;12.20;43.74;97646.28;4852337;28;102862;-79
2021/03/15 04:11:03;;;;;;;;;4.00;4.00;;;;;12.19;44.04;97641.91;4857051;28;109413;-79
2021/03/15 04:13:30;;;;;;;;;6.25;5.00;;;;;12.19;43.72;97650.06;4846352;28;104365;-79
2021/03/15 04:15:57;;;;;;;;;6.25;5.00;;;;;12.19;43.61;97650.06;4852779;28;102854;-79
2021/03/15 04:18:26;;;;;;;;;6.75;6.00;;;;;12.19;43.83;97652.75;4850114;28;104082;-79
2021/03/15 04:21:02;;;;;;;;;5.75;4.00;;;;;12.19;43.53;97655.47;4837277;28;105425;-79
2021/03/15 04:23:31;;;;;;;;;5.50;5.00;;;;;12.20;44.06;97657.13;4858139;28;103041;-79
2021/03/15 04:25:58;;;;;;;;;3.75;3.00;;;;;12.19;43.91;97643.81;4834261;28;103636;-79
2021/03/15 04:28:29;;;;;;;;;4.00;4.00;;;;;12.17;43.82;97649.44;4846976;28;103039;-79
2021/03/15 04:30:56;;;;;;;;;5.50;4.50;;;;;12.18;43.58;97645.69;4857241;28;104264;-79
2021/03/15 04:33:23;;;;;;;;;3.00;3.00;;;;;12.18;43.59;97656.53;4837256;28;102857;-79
2021/03/15 04:35:50;;;;;;;;;11.50;7.00;;;;;12.17;43.79;97648.63;4849754;28;104686;-77
2021/03/15 04:38:17;;;;;;;;;5.00;4.00;;;;;12.15;44.10;97643.44;4839567;28;102931;-77
2021/03/15 04:40:46;;;;;;;;;5.75;5.25;;;;;12.17;43.59;97645.91;4840138;28;103991;-77
2021/03/15 04:43:12;;;;;;;;;4.00;4.00;;;;;12.16;43.93;97642.38;4850358;28;104102;-77
2021/03/15 04:45:45;;;;;;;;;3.50;3.50;;;;;12.16;43.67;97642.38;4849688;28;103639;-77
2021/03/15 04:48:16;;;;;;;;;5.25;4.00;;;;;12.17;43.73;97643.19;4845005;28;104718;-77
2021/03/15 04:50:44;;;;;;;;;4.25;4.25;;;;;12.16;43.64;97647.78;4835317;28;104795;-77
2021/03/15 04:53:14;;;;;;;;;4.50;4.25;;;;;12.16;43.57;97642.38;4835256;28;104582;-77
2021/03/15 04:55:42;;;;;;;;;4.75;4.00;;;;;12.15;43.20;97638.03;4845852;28;102886;-77
2021/03/15 04:58:10;;;;;;;;;6.75;5.25;;;;;12.16;43.76;97649.69;4854617;28;104821;-76
2021/03/15 05:00:37;;;;;;;;;5.75;5.00;;;;;12.14;43.48;97644.50;4849750;28;103848;-77
2021/03/15 05:03:06;;;;;;;;;10.75;6.25;;;;;12.15;43.53;97665.13;4847024;28;103108;-76
2021/03/15 05:05:33;;;;;;;;;5.50;5.00;;;;;12.14;43.65;97658.06;4860980;28;103016;-76
2021/03/15 05:08:01;;;;;;;;;5.25;5.25;;;;;12.15;44.38;97654.28;4859829;28;104104;-77
2021/03/15 05:10:29;;;;;;;;;6.00;5.50;;;;;12.15;44.21;97642.63;4853715;28;104277;-77
2021/03/15 05:12:57;;;;;;;;;4.00;3.75;;;;;12.14;44.25;97651.81;4827662;28;102932;-77
2021/03/15 05:15:24;;;;;;;;;5.50;4.50;;;;;12.14;43.76;97652.63;4850516;28;106729;-77
2021/03/15 05:17:50;;;;;;;;;6.00;5.00;;;;;12.14;43.61;97652.63;4860722;28;103162;-76
2021/03/15 05:20:17;;;;;;;;;6.50;5.25;;;;;12.14;44.18;97647.22;4859004;28;103993;-77
2021/03/15 05:22:44;;;;;;;;;6.50;5.50;;;;;12.14;43.82;97647.22;4850931;28;102940;-77
2021/03/15 05:25:12;;;;;;;;;5.50;5.25;;;;;12.14;43.40;97649.94;4844832;28;102820;-77
2021/03/15 05:27:42;;;;;;;;;5.75;5.00;;;;;12.14;43.77;97641.78;4856092;28;102956;-77
2021/03/15 05:30:12;;;;;;;;;7.00;6.00;;;;;12.11;43.89;97639.56;4848009;28;108887;-77
2021/03/15 05:32:44;;;;;;;;;7.00;5.25;;;;;12.09;44.00;97638.97;4851948;28;102691;-76
2021/03/15 05:35:11;;;;;;;;;9.25;6.00;;;;;12.11;44.18;97649.56;4851382;28;102905;-79
2021/03/15 05:37:38;;;;;;;;;5.50;5.00;;;;;12.11;44.09;97644.97;4839353;28;103068;-79
2021/03/15 05:40:17;;;;;;;;;6.00;4.25;;;;;12.12;43.93;97657.44;4853682;28;109809;-79
2021/03/15 05:43:13;;;;;;;;;6.00;5.50;;;;;12.13;43.94;97655.56;4854803;28;102883;-79
2021/03/15 05:46:03;;;;;;;;;8.00;5.00;;;;;12.13;43.82;97659.09;4836003;28;102796;-79
2021/03/15 05:48:54;;;;;;;;;7.00;5.50;;;;;12.13;43.59;97650.16;4849488;28;105325;-79
2021/03/15 05:51:33;;;;;;;;;5.00;5.00;;;;;12.11;43.87;97647.69;4796644;28;108869;-79
2021/03/15 05:54:30;;;;;;;;;5.00;4.50;;;;;12.12;43.57;97659.34;4845566;28;105936;-79
2021/03/15 05:57:22;;;;;;;;;8.00;5.25;;;;;12.12;43.75;97656.63;4783016;28;102993;-79
2021/03/15 06:00:13;;;;;;;;;4.75;4.25;;;;;12.09;44.08;97652.50;4795918;28;102953;-79
2021/03/15 06:02:45;;;;;;;;;4.75;4.25;;;;;12.11;44.00;97657.69;4857389;28;110050;-79
2021/03/15 06:05:24;;;;;;;;;6.00;5.75;;;;;12.11;43.75;97658.53;4848898;28;102795;-79
2021/03/15 06:07:54;;;;;;;;;7.00;5.75;;;;;12.10;43.49;97654.16;4844712;28;102911;-79
2021/03/15 06:10:36;;;;;;;;;6.25;5.00;;;;;12.12;43.61;97664.75;4840759;28;102944;-79
2021/03/15 06:13:11;;;;;;;;;6.00;5.50;;;;;12.11;43.67;97660.41;4849306;28;104276;-79
2021/03/15 06:15:39;;;;;;;;;8.25;6.00;;;;;12.12;43.49;97665.56;4842505;28;103217;-79
2021/03/15 06:18:07;;;;;;;;;6.00;5.00;;;;;12.10;43.70;97654.16;4848838;28;104769;-79
2021/03/15 06:20:35;;;;;;;;;6.00;5.00;;;;;12.11;44.04;97663.13;4848876;28;102996;-79
2021/03/15 06:23:02;;;;;;;;;6.25;5.00;;;;;12.11;44.09;97672.09;4856963;28;105326;-79
2021/03/15 06:25:29;;;;;;;;;5.50;5.50;;;;;12.10;43.37;97667.72;4857084;28;103226;-79
2021/03/15 06:27:56;;;;;;;;;7.00;6.75;;;;;12.10;43.45;97678.56;4850852;28;102932;-79
2021/03/15 06:30:24;;;;;;;;;6.25;4.50;;;;;12.11;43.62;97679.38;4855258;28;102956;-79
2021/03/15 06:32:51;;;;;;;;;8.00;5.00;;;;;12.11;43.91;97672.09;4862006;28;104592;-79
2021/03/15 06:35:19;;;;;;;;;10.00;5.25;;;;;12.08;43.77;97670.66;4854930;28;103700;-79
2021/03/15 06:37:47;;;;;;;;;6.00;5.25;;;;;12.10;43.29;97662.28;4857759;28;103781;-79
2021/03/15 06:40:14;;;;;;;;;4.00;4.00;;;;;12.11;43.80;97669.38;4859495;28;102988;-79
2021/03/15 06:42:44;;;;;;;;;5.50;5.00;;;;;12.11;43.32;97674.78;4860250;28;103969;-79
2021/03/15 06:45:14;;;;;;;;;5.00;5.00;;;;;12.11;44.03;97677.50;4861468;28;103784;-79
2021/03/15 06:47:41;;;;;;;;;6.75;6.25;;;;;12.11;43.27;97674.78;4857801;28;102738;-79
2021/03/15 06:50:09;;;;;;;;;7.25;5.00;;;;;12.11;43.71;97677.50;4852141;28;104150;-79
2021/03/15 06:52:51;;;;;;;;;8.00;6.00;;;;;12.11;43.49;97677.50;4840757;28;103848;-79
2021/03/15 06:55:34;;;;;;;;;6.25;6.00;;;;;12.11;43.43;97663.13;4747864;28;103159;-79
2021/03/15 06:58:01;;;;;;;;;6.00;5.00;;;;;12.12;43.55;97667.47;4854162;28;102937;-79
2021/03/15 07:00:30;;;;;;;;;5.75;5.75;;;;;12.12;43.53;97671.00;4856190;28;104058;-79
2021/03/15 07:02:57;;;;;;;;;6.00;6.00;;;;;12.11;43.68;97672.09;4849232;28;104093;-79
2021/03/15 07:05:24;;;;;;;;;6.25;5.00;;;;;12.12;43.80;97670.16;4855113;28;103034;-79
2021/03/15 07:07:53;;;;;;;;;4.75;4.00;;;;;12.12;43.63;97671.00;4861854;28;104629;-79
2021/03/15 07:10:21;;;;;;;;;6.00;5.00;;;;;12.12;43.46;97671.00;4864536;28;104335;-79
2021/03/15 07:12:48;;;;;;;;;4.75;4.00;;;;;12.13;43.69;97678.06;4851884;28;105528;-79
2021/03/15 07:15:15;;;;;;;;;6.75;5.00;;;;;12.12;43.33;97678.31;4858620;28;103876;-79
2021/03/15 07:17:42;;;;;;;;;5.25;4.50;;;;;12.12;43.20;97679.13;4858481;28;103636;-79
2021/03/15 07:20:10;;;;;;;;;8.00;6.25;;;;;12.13;43.79;97679.97;4860690;28;102951;-79
2021/03/15 07:22:44;;;;;;;;;5.50;4.75;;;;;12.13;43.93;97674.53;4862542;28;106031;-79
2021/03/15 07:25:16;;;;;;;;;9.75;5.75;;;;;12.13;43.43;97671.81;4854614;28;102856;-79
2021/03/15 07:27:44;;;;;;;;;5.50;5.00;;;;;12.14;43.50;97679.72;4858057;28;102546;-79
2021/03/15 07:30:30;;;;;;;;;5.25;3.25;;;;;12.14;43.56;97678.91;4870103;28;103440;-79
2021/03/15 07:33:14;;;;;;;;;8.00;5.50;;;;;12.14;43.48;97674.31;4803723;28;111098;-79
2021/03/15 07:35:40;;;;;;;;;5.00;5.00;;;;;12.14;43.61;97678.91;4853785;28;102779;-79
2021/03/15 07:38:07;;;;;;;;;6.25;5.75;;;;;12.14;43.71;97671.59;4868599;28;102757;-79
2021/03/15 07:40:39;;;;;;;;;9.25;5.50;;;;;12.14;43.50;97674.31;4864123;28;104480;-79
2021/03/15 07:43:16;;;;;;;;;5.00;5.00;;;;;12.15;43.66;97675.16;4865354;28;104251;-79
2021/03/15 07:45:47;;;;;;;;;5.00;4.00;;;;;12.15;43.79;97662.41;4856834;28;102813;-79
2021/03/15 07:48:25;;;;;;;;;7.75;5.50;;;;;12.15;43.32;97667.00;4858261;28;104146;-79
2021/03/15 07:51:01;;;;;;;;;6.00;5.25;;;;;12.15;43.60;97665.13;4860273;28;102636;-79
2021/03/15 07:53:41;;;;;;;;;5.25;4.75;;;;;12.15;43.10;97673.25;4857771;28;104047;-79
2021/03/15 07:56:10;;;;;;;;;5.00;4.50;;;;;12.16;43.33;97668.66;4869677;28;102943;-79
2021/03/15 07:58:39;;;;;;;;;7.75;6.00;;;;;12.15;43.92;97667.84;4859136;28;102843;-79
2021/03/15 08:01:07;;;;;;;;;5.00;4.00;;;;;12.15;43.61;97681.38;4861458;28;102895;-79
2021/03/15 08:03:39;;;;;;;;;6.25;5.25;;;;;12.15;43.15;97675.97;4872833;28;103960;-79
2021/03/15 08:06:07;;;;;;;;;5.00;4.75;;;;;12.15;43.51;97670.56;4863195;28;102874;-79
2021/03/15 08:08:34;;;;;;;;;6.75;5.75;;;;;12.16;43.32;97672.19;4864410;28;102839;-79
2021/03/15 08:11:02;;;;;;;;;6.00;5.00;;;;;12.13;43.32;97669.94;4866886;28;102931;-79
2021/03/15 08:13:30;;;;;;;;;6.00;5.00;;;;;12.16;43.75;97674.09;4840104;28;103798;-79
2021/03/15 08:15:59;;;;;;;;;5.75;4.50;;;;;12.16;43.74;97666.75;4870645;28;102926;-79
2021/03/15 08:18:27;;;;;;;;;5.00;3.50;;;;;12.16;43.10;97669.47;4865224;28;103537;-79
2021/03/15 08:21:05;;;;;;;;;4.50;4.50;;;;;12.17;43.76;97667.59;4860609;28;104625;-79
2021/03/15 08:23:34;;;;;;;;;1.75;0.00;;;;;12.17;43.34;97668.41;4860563;28;104084;-79
2021/03/15 08:26:05;;;;;;;;;5.00;5.00;;;;;12.18;43.72;97675.50;4867802;28;102488;-79
2021/03/15 08:28:33;;;;;;;;;6.00;5.25;;;;;12.18;43.84;97670.06;4859425;28;102776;-79
2021/03/15 08:31:13;;;;;;;;;6.00;5.00;;;;;12.18;43.53;97670.06;4865787;28;103100;-79
2021/03/15 08:33:40;;;;;;;;;6.00;5.50;;;;;12.19;43.73;97671.72;4862516;28;109165;-79
2021/03/15 08:36:07;;;;;;;;;6.25;4.50;;;;;12.20;43.51;97667.97;4855719;28;102652;-79
2021/03/15 08:38:34;;;;;;;;;5.00;4.00;;;;;12.20;43.84;97659.84;4866234;28;102834;-79
2021/03/15 08:41:11;;;;;;;;;6.00;5.00;;;;;12.21;43.06;97663.34;4869294;28;102993;-79
2021/03/15 08:43:41;;;;;;;;;5.25;4.75;;;;;12.19;43.63;97660.06;4849653;28;104005;-79
2021/03/15 08:46:16;;;;;;;;;6.75;5.00;;;;;12.22;43.18;97657.69;4858158;28;103095;-79
2021/03/15 08:48:45;;;;;;;;;5.50;5.25;;;;;12.23;43.40;97656.66;4871667;28;102935;-79
2021/03/15 08:51:13;;;;;;;;;3.25;3.25;;;;;12.24;43.70;97660.19;4862200;28;102693;-80
2021/03/15 08:53:40;;;;;;;;;5.00;5.00;;;;;12.23;43.41;97659.34;4852021;28;108714;-79
2021/03/15 08:56:19;;;;;;;;;6.25;4.25;;;;;12.25;43.55;97659.94;4872114;28;102603;-80
2021/03/15 08:58:53;;;;;;;;;5.25;3.75;;;;;12.25;43.01;97649.09;4857937;28;102717;-79
2021/03/15 09:01:27;;;;;;;;;7.50;6.25;;;;;12.24;43.27;97646.63;4864088;28;102927;-79
2021/03/15 09:04:03;;;;;;;;;5.50;4.00;;;;;12.27;43.53;97644.28;4864394;28;104236;-79
2021/03/15 09:06:34;;;;;;;;;4.00;4.00;;;;;12.26;43.19;97639.91;4856745;28;102765;-79
2021/03/15 09:09:05;;;;;;;;;5.75;4.75;;;;;12.28;43.33;97643.22;4862638;28;102956;-79
2021/03/15 09:11:35;;;;;;;;;4.50;4.00;;;;;12.26;43.01;97645.31;4856737;28;102791;-79
2021/03/15 09:14:18;;;;;;;;;5.50;3.50;;;;;12.26;43.21;97637.19;4857177;28;104584;-79
2021/03/15 09:16:45;;;;;;;;;4.75;4.00;;;;;12.28;43.12;97640.50;4862409;28;105034;-79
2021/03/15 09:19:48;;;;;;;;;4.00;3.00;;;;;12.26;43.07;97644.50;4864446;28;102918;-79
2021/03/15 09:22:25;;;;;;;;;5.00;5.00;;;;;12.28;43.18;97636.97;4798638;28;104378;-79
2021/03/15 09:25:01;;;;;;;;;4.00;3.25;;;;;12.23;43.24;97629.56;4735665;28;109160;-79
2021/03/15 09:27:44;;;;;;;;;4.75;4.00;;;;;12.29;43.05;97638.63;4861837;28;102999;-79
2021/03/15 09:30:23;;;;;;;;;5.25;5.25;;;;;12.30;43.82;97634.84;4866047;28;102861;-80
2021/03/15 09:32:54;;;;;;;;;4.00;3.00;;;;;12.30;43.55;97634.84;4861125;28;102961;-79
2021/03/15 09:35:25;;;;;;;;;5.00;4.75;;;;;12.26;43.40;97631.78;4859873;28;103996;-79
2021/03/15 09:37:54;;;;;;;;;3.00;3.00;;;;;12.29;42.96;97628.59;4864865;28;102680;-79
2021/03/15 09:40:26;;;;;;;;;4.50;3.00;;;;;12.30;43.28;97632.13;4858198;28;102830;-79
2021/03/15 09:42:53;;;;;;;;;5.00;4.50;;;;;12.30;43.22;97632.13;4856819;28;103004;-79
2021/03/15 09:45:25;;;;;;;;;4.00;4.00;;;;;12.30;43.22;97629.41;4851374;28;104098;-79
2021/03/15 09:47:51;;;;;;;;;4.50;4.00;;;;;12.30;43.25;97621.28;4864952;28;102679;-79
2021/03/15 09:50:23;;;;;;;;;3.75;3.00;;;;;12.31;42.76;97625.66;4864366;28;102775;-79
2021/03/15 09:52:50;;;;;;;;;3.00;3.00;;;;;12.31;43.31;97625.66;4854976;28;103045;-79
2021/03/15 09:55:17;;;;;;;;;5.00;5.00;;;;;12.29;42.91;97615.03;4851062;28;104061;-79
2021/03/15 09:57:43;;;;;;;;;5.00;4.25;;;;;12.29;42.98;97623.16;4866600;28;102866;-80
2021/03/15 10:00:11;;;;;;;;;4.50;3.00;;;;;12.30;43.52;97624.00;4866668;28;103027;-79
2021/03/15 10:02:38;;;;;;;;;3.00;3.00;;;;;12.30;43.43;97613.16;4860952;28;102833;-79
2021/03/15 10:05:07;;;;;;;;;3.25;3.00;;;;;12.28;43.42;97620.72;4864113;28;104434;-79
2021/03/15 10:07:46;;;;;;;;;4.00;3.25;;;;;12.31;42.94;97614.81;4878786;28;102765;-79
2021/03/15 10:10:17;;;;;;;;;5.00;4.00;;;;;12.31;42.82;97609.38;4857025;28;103217;-79
2021/03/15 10:12:45;;;;;;;;;4.00;4.00;;;;;12.31;43.22;97615.63;4862535;28;102886;-79
2021/03/15 10:15:12;;;;;;;;;3.25;3.00;;;;;12.31;43.11;97618.34;4869530;28;108857;-79
2021/03/15 10:17:39;;;;;;;;;3.00;3.00;;;;;12.31;43.21;97612.94;4856345;28;102879;-79
2021/03/15 10:20:30;;;;;;;;;6.75;4.25;;;;;12.31;43.45;97615.63;4764519;28;103125;-79
2021/03/15 10:22:57;;;;;;;;;4.00;4.00;;;;;12.32;43.11;97611.03;4870109;28;102907;-79
2021/03/15 10:25:23;;;;;;;;;3.50;3.00;;;;;12.32;43.24;97611.03;4859900;28;103927;-79
2021/03/15 10:27:58;;;;;;;;;3.75;2.00;;;;;12.31;42.94;97604.78;4861110;28;102936;-79
2021/03/15 10:30:28;;;;;;;;;2.00;2.00;;;;;12.31;42.96;97603.97;4859265;28;102877;-79
2021/03/15 10:32:56;;;;;;;;;3.25;3.00;;;;;12.31;43.34;97602.09;4853636;28;102713;-79
2021/03/15 10:35:24;;;;;;;;;3.50;2.75;;;;;12.31;43.37;97607.50;4857567;28;104620;-79
2021/03/15 10:37:52;;;;;;;;;4.00;4.00;;;;;12.31;43.34;97603.97;4839944;28;102902;-79
2021/03/15 10:40:20;;;;;;;;;3.75;3.00;;;;;12.31;43.19;97599.38;4829287;28;104791;-79
2021/03/15 10:42:47;;;;;;;;;3.50;3.00;;;;;12.31;43.24;97602.09;4856403;28;102948;-79
2021/03/15 10:45:14;;;;;;;;;4.00;3.50;;;;;12.31;43.01;97602.09;4870517;28;103859;-79
2021/03/15 10:47:40;;;;;;;;;3.50;3.00;;;;;12.31;42.85;97596.66;4851090;28;104980;-79
2021/03/15 10:50:26;;;;;;;;;3.75;3.00;;;;;12.31;43.39;97599.38;4858070;28;102673;-79
2021/03/15 10:52:53;;;;;;;;;4.00;3.00;;;;;12.31;43.47;97599.38;4759743;28;102795;-79
2021/03/15 10:55:24;;;;;;;;;3.75;3.50;;;;;12.31;43.08;97602.09;4848678;28;104246;-79
2021/03/15 10:58:08;;;;;;;;;3.75;3.00;;;;;12.31;43.41;97599.38;4852125;28;102944;-79
2021/03/15 11:00:44;;;;;;;;;4.00;3.00;;;;;12.32;43.20;97597.50;4862384;28;102798;-79
2021/03/15 11:03:27;;;;;;;;;5.25;3.25;;;;;12.32;43.62;97595.59;4861097;28;102777;-79
2021/03/15 11:06:15;;;;;;;;;2.75;2.75;;;;;12.33;43.02;97588.31;4731119;28;108848;-79
2021/03/15 11:08:42;;;;;;;;;2.75;2.75;;;;;12.32;43.37;97590.19;4858981;28;102651;-79
2021/03/15 11:11:18;;;;;;;;;4.00;3.00;;;;;12.33;42.95;97585.59;4863614;28;102503;-79
2021/03/15 11:13:46;;;;;;;;;3.75;3.00;;;;;12.31;43.25;97588.53;4857410;28;102917;-79
2021/03/15 11:16:19;;;;;;;;;3.25;3.00;;;;;12.31;43.02;97576.84;4854549;28;108594;-79
2021/03/15 11:18:49;;;;;;;;;3.00;3.00;;;;;12.33;43.67;97574.75;4860145;28;102756;-79
2021/03/15 11:21:16;;;;;;;;;2.75;2.75;;;;;12.32;43.26;97573.91;4856722;28;103042;-79
2021/03/15 11:23:44;;;;;;;;;3.50;2.00;;;;;12.31;42.85;97566.84;4843169;28;102895;-79
2021/03/15 11:26:14;;;;;;;;;3.75;3.75;;;;;12.32;43.14;97559.53;4866490;28;104463;-80
2021/03/15 11:28:41;;;;;;;;;3.25;2.75;;;;;12.29;43.27;97565.44;4857964;28;102803;-79
2021/03/15 11:31:15;;;;;;;;;3.00;2.00;;;;;12.31;43.04;97561.44;4862321;28;102777;-79
2021/03/15 11:33:52;;;;;;;;;3.00;3.00;;;;;12.31;43.56;97566.84;4863810;28;104585;-79
2021/03/15 11:36:21;;;;;;;;;2.50;2.50;;;;;12.32;43.01;97565.78;4856832;28;109231;-79
2021/03/15 11:39:02;;;;;;;;;4.00;3.25;;;;;12.31;43.29;97553.28;4860184;28;102913;-79
2021/03/15 11:41:33;;;;;;;;;3.50;3.00;;;;;12.32;43.36;97551.41;4862816;28;104992;-79